Time;durP1;ratioP1;P1;durP2;ratioP2;P2;SDS_P1;SDS_P2;PMS_P1;PMS_P2;Temp;Humidity;BMP_temperature;BMP_pressure;BME280_temperature;BME280_humidity;BME280_pressure;Samples;Min_cycle;Max_cycle;Signal;HPM_P1;HPM_P2
2023/07/15 00:02:18;;;;;;;7.80;4.47;;;;;;;22.66;83.55;94778.22;4920634;29;20220;-74
2023/07/15 00:04:45;;;;;;;12.02;6.15;;;;;;;22.53;83.90;94771.56;4919310;29;20282;-74
2023/07/15 00:07:11;;;;;;;11.02;6.53;;;;;;;22.49;84.00;94778.28;4920166;29;20476;-74
2023/07/15 00:09:40;;;;;;;8.80;5.32;;;;;;;22.51;84.14;94773.16;4919427;29;20248;-74
2023/07/15 00:12:09;;;;;;;10.45;5.57;;;;;;;22.47;84.08;94769.59;4917729;29;20294;-74
2023/07/15 00:14:36;;;;;;;9.20;5.40;;;;;;;22.48;84.07;94776.69;4917554;29;20208;-75
2023/07/15 00:17:03;;;;;;;11.50;6.72;;;;;;;22.49;84.24;94779.06;4926591;29;20211;-75
2023/07/15 00:19:33;;;;;;;9.95;5.63;;;;;;;22.48;84.24;94782.22;4917260;29;20220;-75
2023/07/15 00:22:00;;;;;;;11.93;5.60;;;;;;;22.48;84.95;94771.19;4914631;29;20247;-75
2023/07/15 00:24:27;;;;;;;7.20;5.00;;;;;;;22.51;84.59;94776.69;4904513;29;20228;-75
2023/07/15 00:26:58;;;;;;;9.25;5.50;;;;;;;22.44;85.49;94776.72;4922356;29;20204;-75
2023/07/15 00:29:25;;;;;;;8.40;5.50;;;;;;;22.27;86.22;94777.56;4914951;29;20529;-73
2023/07/15 00:31:52;;;;;;;7.90;5.35;;;;;;;22.21;87.05;94779.16;4924991;29;20222;-73
2023/07/15 00:34:20;;;;;;;11.82;6.18;;;;;;;22.21;87.06;94782.69;4923876;29;20292;-74
2023/07/15 00:36:47;;;;;;;8.20;6.00;;;;;;;22.17;87.52;94783.88;4919588;29;20201;-74
2023/07/15 00:39:13;;;;;;;10.50;5.43;;;;;;;22.19;87.09;94789.78;4912937;29;20595;-73
2023/07/15 00:41:41;;;;;;;8.93;5.30;;;;;;;22.27;87.26;94788.63;4912703;29;20727;-73
2023/07/15 00:44:14;;;;;;;8.98;5.60;;;;;;;22.33;86.99;94792.53;4919933;29;20236;-75
2023/07/15 00:47:21;;;;;;;8.68;5.05;;;;;;;22.33;87.44;94789.75;4915578;29;20200;-75
2023/07/15 00:49:50;;;;;;;12.45;5.82;;;;;;;22.31;87.14;94783.84;4923133;29;20212;-75
2023/07/15 00:52:20;;;;;;;10.80;6.78;;;;;;;22.28;87.81;94795.69;4922681;29;20215;-74
2023/07/15 00:54:50;;;;;;;7.68;5.18;;;;;;;22.26;87.28;94787.03;4918090;29;20239;-74
2023/07/15 00:57:19;;;;;;;8.43;6.13;;;;;;;22.24;87.83;94789.41;4922497;29;20675;-74
2023/07/15 00:59:48;;;;;;;9.18;6.45;;;;;;;22.24;87.59;94789.41;4921647;29;20216;-74
2023/07/15 01:02:15;;;;;;;9.90;5.75;;;;;;;22.16;87.81;94798.88;4920323;29;20280;-74
2023/07/15 01:04:42;;;;;;;7.75;5.18;;;;;;;22.12;87.84;94798.09;4913305;29;20232;-74
2023/07/15 01:07:10;;;;;;;9.23;5.72;;;;;;;22.14;88.15;94801.25;4920958;29;20778;-74
2023/07/15 01:09:37;;;;;;;10.52;5.30;;;;;;;21.90;89.13;94806.38;4920350;29;20219;-74
2023/07/15 01:12:05;;;;;;;8.48;5.93;;;;;;;21.92;88.96;94803.22;4916999;29;20247;-74
2023/07/15 01:14:32;;;;;;;9.75;6.20;;;;;;;21.79;90.29;94802.84;4916407;29;20577;-74
2023/07/15 01:16:59;;;;;;;12.63;6.47;;;;;;;21.82;90.73;94802.06;4926581;29;20207;-74
2023/07/15 01:19:27;;;;;;;8.43;6.65;;;;;;;21.90;90.47;94803.59;4906667;29;20576;-74
2023/07/15 01:21:54;;;;;;;9.25;6.13;;;;;;;21.96;89.87;94795.72;4912055;29;20327;-74
2023/07/15 01:24:25;;;;;;;11.43;6.95;;;;;;;21.97;89.50;94798.09;4925498;29;20256;-74
2023/07/15 01:26:56;;;;;;;10.82;6.43;;;;;;;21.95;89.63;94800.47;4922248;29;20236;-74
2023/07/15 01:29:23;;;;;;;10.05;6.05;;;;;;;21.89;89.37;94796.50;4912152;29;20569;-74
2023/07/15 01:31:50;;;;;;;11.80;5.78;;;;;;;21.89;89.20;94796.50;4924232;29;20214;-75
2023/07/15 01:34:19;;;;;;;12.15;5.93;;;;;;;21.91;88.87;94799.66;4918081;29;20212;-75
2023/07/15 01:36:46;;;;;;;7.50;5.63;;;;;;;21.94;88.11;94803.59;4908276;29;20232;-75
2023/07/15 01:39:13;;;;;;;9.25;5.88;;;;;;;21.87;88.11;94809.91;4911542;29;20219;-75
2023/07/15 01:41:41;;;;;;;8.80;5.85;;;;;;;21.85;89.09;94812.28;4921794;29;20632;-75
2023/07/15 01:44:07;;;;;;;10.90;6.00;;;;;;;21.81;89.49;94800.47;4919370;29;20576;-75
2023/07/15 01:46:38;;;;;;;10.45;6.28;;;;;;;21.74;90.17;94805.19;4915674;29;20212;-74
2023/07/15 01:49:05;;;;;;;13.90;6.38;;;;;;;21.75;90.55;94810.31;4920575;29;20283;-74
2023/07/15 01:51:32;;;;;;;10.85;6.47;;;;;;;21.67;91.40;94800.47;4921898;29;20624;-75
2023/07/15 01:53:59;;;;;;;9.32;5.90;;;;;;;21.63;91.33;94808.75;4916797;29;20630;-75
2023/07/15 01:56:26;;;;;;;12.65;5.60;;;;;;;21.64;90.48;94815.03;4916492;29;20542;-75
2023/07/15 01:58:54;;;;;;;13.02;6.53;;;;;;;21.64;91.19;94807.56;4926861;29;20204;-74
2023/07/15 02:01:22;;;;;;;10.55;6.65;;;;;;;21.62;91.36;94804.41;4917744;29;20232;-74
2023/07/15 02:03:50;;;;;;;10.23;6.55;;;;;;;21.60;91.66;94804.00;4914636;29;20232;-75
2023/07/15 02:06:17;;;;;;;13.80;6.07;;;;;;;21.54;92.74;94808.34;4911829;29;20614;-75
2023/07/15 02:08:44;;;;;;;8.77;5.93;;;;;;;21.51;92.87;94805.59;4917574;29;20222;-75
2023/07/15 02:11:11;;;;;;;11.10;6.65;;;;;;;21.43;93.33;94801.25;4916526;29;20251;-75
2023/07/15 02:13:38;;;;;;;10.32;6.13;;;;;;;21.53;93.26;94805.97;4912498;29;20212;-75
2023/07/15 02:16:06;;;;;;;12.18;6.72;;;;;;;21.54;92.99;94810.31;4916017;29;20264;-73
2023/07/15 02:18:33;;;;;;;9.60;6.05;;;;;;;21.48;92.59;94812.66;4915635;29;20360;-73
2023/07/15 02:21:00;;;;;;;9.32;5.60;;;;;;;21.40;92.68;94808.34;4912859;29;20233;-73
2023/07/15 02:23:27;;;;;;;11.32;6.57;;;;;;;21.37;92.17;94808.31;4922757;29;20212;-73
2023/07/15 02:25:53;;;;;;;10.40;6.20;;;;;;;21.41;92.11;94809.13;4919677;29;20224;-74
2023/07/15 02:28:22;;;;;;;11.60;6.47;;;;;;;;;;4919029;29;20213;-75
2023/07/15 02:30:49;;;;;;;12.93;6.68;;;;;;;21.48;92.42;94809.13;4905909;29;20200;-74
2023/07/15 02:33:17;;;;;;;11.63;6.13;;;;;;;21.45;92.72;94799.69;4928363;29;20227;-74
2023/07/15 02:35:44;;;;;;;12.05;5.72;;;;;;;21.40;91.97;94802.03;4920844;29;20621;-74
2023/07/15 02:38:11;;;;;;;11.57;5.88;;;;;;;21.40;91.44;94807.56;4918549;29;20216;-75
2023/07/15 02:40:38;;;;;;;11.00;6.20;;;;;;;21.20;92.43;94810.66;4919360;29;20203;-75
2023/07/15 02:43:04;;;;;;;8.70;5.82;;;;;;;21.17;92.49;94811.44;4927024;29;20219;-74
2023/07/15 02:45:31;;;;;;;8.68;5.25;;;;;;;21.10;93.08;94810.63;4918590;29;20244;-75
2023/07/15 02:47:58;;;;;;;9.60;5.72;;;;;;;21.13;93.22;94810.63;4915908;29;20200;-74
2023/07/15 02:50:26;;;;;;;10.70;6.43;;;;;;;21.23;93.15;94804.38;4928521;29;20204;-74
2023/07/15 02:52:53;;;;;;;8.70;5.65;;;;;;;21.13;93.51;94809.84;4919214;29;20208;-74
2023/07/15 02:55:20;;;;;;;9.07;6.20;;;;;;;21.06;93.31;94818.84;4916026;29;20656;-74
2023/07/15 02:57:47;;;;;;;10.10;6.32;;;;;;;21.07;93.29;94812.19;4924583;29;20247;-74
2023/07/15 03:00:15;;;;;;;7.80;5.47;;;;;;;21.05;92.94;94806.25;4922663;29;20261;-74
2023/07/15 03:02:44;;;;;;;14.05;6.85;;;;;;;21.08;92.92;94813.75;4921241;29;20267;-75
2023/07/15 03:05:11;;;;;;;9.45;6.40;;;;;;;21.14;92.42;94822.44;4914385;29;20604;-74
2023/07/15 03:07:43;;;;;;;12.25;6.10;;;;;;;21.20;92.51;94818.94;4924319;29;20231;-74
2023/07/15 03:10:11;;;;;;;9.07;6.13;;;;;;;21.23;92.74;94815.41;4921488;29;20239;-74
2023/07/15 03:12:38;;;;;;;8.75;6.40;;;;;;;21.34;92.13;94817.38;4914149;29;20196;-74
2023/07/15 03:15:05;;;;;;;14.07;6.05;;;;;;;21.46;91.73;94823.28;4922372;29;20268;-74
2023/07/15 03:17:35;;;;;;;9.57;6.25;;;;;;;21.55;91.65;94822.94;4924336;29;20213;-74
2023/07/15 03:20:04;;;;;;;10.90;6.13;;;;;;;21.76;90.82;94828.44;4913461;29;20768;-74
2023/07/15 03:22:31;;;;;;;10.80;6.35;;;;;;;22.01;90.02;94822.16;4918215;29;20200;-74
2023/07/15 03:25:00;;;;;;;10.75;6.32;;;;;;;22.27;88.84;94818.97;4926033;29;20713;-75
2023/07/15 03:27:26;;;;;;;8.55;5.88;;;;;;;22.59;86.84;94819.66;4921308;29;20230;-74
2023/07/15 03:29:54;;;;;;;10.68;6.53;;;;;;;22.97;85.28;94825.44;4916489;29;20604;-74
2023/07/15 03:32:22;;;;;;;9.93;5.97;;;;;;;23.27;83.86;94828.44;4915355;29;20299;-75
2023/07/15 03:34:49;;;;;;;9.98;6.60;;;;;;;23.44;83.30;94823.22;4927493;29;20200;-74
2023/07/15 03:37:16;;;;;;;12.00;6.93;;;;;;;23.13;84.49;94816.69;4914788;29;20255;-74
2023/07/15 03:39:43;;;;;;;14.00;6.40;;;;;;;23.67;82.55;94821.50;4914810;29;20212;-74
2023/07/15 03:42:12;;;;;;;13.05;8.15;;;;;;;24.25;79.81;94816.28;4923775;29;20208;-74
2023/07/15 03:44:38;;;;;;;15.15;7.85;;;;;;;24.85;77.32;94807.31;4917105;29;20224;-74
2023/07/15 03:47:05;;;;;;;11.55;8.43;;;;;;;25.32;74.96;94808.28;4915027;29;20267;-75
2023/07/15 03:49:32;;;;;;;10.55;6.60;;;;;;;26.05;72.69;94793.69;4924256;29;20211;-75
2023/07/15 03:51:59;;;;;;;9.95;6.70;;;;;;;26.47;69.97;94796.94;4921855;29;20250;-75
2023/07/15 03:54:26;;;;;;;12.40;8.38;;;;;;;26.37;70.15;94786.81;4920238;29;20207;-75
2023/07/15 03:56:52;;;;;;;13.30;8.35;;;;;;;25.96;71.35;94803.78;4913393;29;20645;-75
2023/07/15 03:59:21;;;;;;;12.88;7.88;;;;;;;25.86;72.18;94802.72;4920991;29;20205;-75
2023/07/15 04:01:47;;;;;;;11.43;8.35;;;;;;;25.76;72.30;94806.47;4919540;29;20458;-75
2023/07/15 04:04:14;;;;;;;12.02;7.82;;;;;;;26.57;69.88;94807.06;4917516;29;20209;-75
2023/07/15 04:06:41;;;;;;;10.73;8.43;;;;;;;26.72;69.21;94808.34;4929005;29;20747;-75
2023/07/15 04:09:11;;;;;;;13.48;8.13;;;;;;;26.95;68.63;94809.50;4924200;29;20214;-75
2023/07/15 04:11:38;;;;;;;12.98;8.45;;;;;;;27.75;65.60;94814.50;4916919;29;20208;-75
2023/07/15 04:14:05;;;;;;;13.20;8.00;;;;;;;28.02;64.47;94819.06;4913634;29;20613;-74
2023/07/15 04:16:33;;;;;;;12.35;8.38;;;;;;;28.66;62.46;94823.78;4917372;29;20204;-75
2023/07/15 04:19:00;;;;;;;13.65;8.70;;;;;;;28.08;63.62;94829.25;4920398;29;20204;-76
2023/07/15 04:21:27;;;;;;;16.23;9.27;;;;;;;27.85;64.06;94826.63;4914225;29;20243;-75
2023/07/15 04:23:54;;;;;;;11.38;8.25;;;;;;;28.61;61.64;94838.25;4924182;29;20212;-75
2023/07/15 04:26:22;;;;;;;13.18;8.55;;;;;;;28.28;62.03;94846.69;4923549;29;20232;-75
2023/07/15 04:28:49;;;;;;;10.93;8.70;;;;;;;28.11;62.49;94850.66;4917179;29;20329;-75
2023/07/15 04:31:16;;;;;;;12.55;9.25;;;;;;;28.79;61.18;94849.75;4922675;29;20279;-75
2023/07/15 04:33:44;;;;;;;11.95;8.70;;;;;;;28.75;60.53;94854.63;4923037;29;20208;-75
2023/07/15 04:36:11;;;;;;;11.55;8.35;;;;;;;29.68;58.26;94850.78;4918209;29;20211;-76
2023/07/15 04:38:37;;;;;;;9.88;7.90;;;;;;;30.74;55.30;94848.59;4916014;29;20254;-76
2023/07/15 04:41:04;;;;;;;12.52;8.27;;;;;;;31.48;52.54;94845.09;4919946;29;20240;-76
2023/07/15 04:43:31;;;;;;;9.98;8.00;;;;;;;32.46;50.41;94845.22;4919408;29;20216;-76
2023/07/15 04:45:58;;;;;;;9.88;7.68;;;;;;;33.23;48.55;94847.16;4916781;29;20235;-76
2023/07/15 04:48:25;;;;;;;9.98;7.65;;;;;;;33.72;47.25;94847.72;4916648;29;20200;-76
2023/07/15 04:50:53;;;;;;;9.68;7.70;;;;;;;34.09;46.29;94858.84;4921158;29;20255;-76
2023/07/15 04:53:20;;;;;;;12.07;7.75;;;;;;;34.73;45.07;94844.44;4917804;29;20294;-76
2023/07/15 04:55:48;;;;;;;11.02;7.72;;;;;;;35.41;43.43;94842.50;4914160;29;20272;-76
2023/07/15 04:58:18;;;;;;;9.52;7.30;;;;;;;35.55;42.73;94838.16;4926445;29;20204;-76
2023/07/15 05:00:45;;;;;;;12.73;7.65;;;;;;;35.91;41.88;94840.63;4923186;29;20207;-76
2023/07/15 05:03:12;;;;;;;10.00;7.53;;;;;;;34.94;43.73;94843.38;4915761;29;20212;-77
2023/07/15 05:05:40;;;;;;;10.23;7.88;;;;;;;35.02;43.22;94844.56;4913344;29;20240;-76
2023/07/15 05:08:13;;;;;;;12.27;7.90;;;;;;;35.77;42.03;94846.25;4921113;29;20389;-77
2023/07/15 05:10:39;;;;;;;10.25;8.05;;;;;;;36.17;41.35;94846.41;4922971;29;20211;-76
2023/07/15 05:13:07;;;;;;;12.18;8.90;;;;;;;35.48;41.67;94850.59;4913996;29;20208;-77
2023/07/15 05:15:36;;;;;;;11.93;8.98;;;;;;;34.74;42.73;94843.19;4923756;29;20286;-74
2023/07/15 05:18:04;;;;;;;11.05;7.85;;;;;;;35.05;42.51;94843.59;4921009;29;20204;-77
2023/07/15 05:20:31;;;;;;;12.52;8.50;;;;;;;36.34;40.14;94838.22;4919309;29;20318;-76
2023/07/15 05:22:58;;;;;;;9.70;7.85;;;;;;;34.51;42.48;94845.53;4919641;29;20361;-77
2023/07/15 05:25:26;;;;;;;13.40;8.65;;;;;;;33.29;45.81;94848.13;4925917;29;20242;-76
2023/07/15 05:27:54;;;;;;;10.52;7.70;;;;;;;34.34;44.35;94847.19;4918593;29;20711;-76
2023/07/15 05:30:20;;;;;;;10.65;7.80;;;;;;;34.71;43.36;94841.34;4915837;29;20291;-77
2023/07/15 05:32:47;;;;;;;11.40;8.32;;;;;;;35.43;41.94;94839.22;4918016;29;20254;-76
2023/07/15 05:35:14;;;;;;;11.63;8.20;;;;;;;36.31;40.82;94836.38;4923503;29;20211;-76
2023/07/15 05:37:41;;;;;;;10.65;7.65;;;;;;;35.38;41.57;94839.91;4912486;29;20636;-76
2023/07/15 05:40:10;;;;;;;12.25;8.38;;;;;;;33.89;44.25;94846.09;4913276;29;20596;-77
2023/07/15 05:42:39;;;;;;;12.13;8.45;;;;;;;35.01;42.39;94843.00;4916723;29;20206;-76
2023/07/15 05:45:07;;;;;;;10.70;8.15;;;;;;;35.19;41.88;94848.50;4919151;29;20539;-75
2023/07/15 05:47:34;;;;;;;12.30;8.63;;;;;;;35.92;41.59;94853.44;4912987;29;20239;-76
2023/07/15 05:50:01;;;;;;;9.40;8.38;;;;;;;35.41;40.82;94855.81;4912344;29;20239;-78
2023/07/15 05:52:28;;;;;;;9.80;8.20;;;;;;;35.17;42.05;94859.47;4895945;29;20287;-77
2023/07/15 05:54:55;;;;;;;14.82;8.73;;;;;;;34.36;43.31;94867.19;4914326;29;20208;-76
2023/07/15 05:57:21;;;;;;;14.75;8.65;;;;;;;34.68;42.60;94865.59;4918871;29;20212;-77
2023/07/15 05:59:50;;;;;;;15.68;8.65;;;;;;;35.55;41.35;94860.69;4911797;29;20248;-77
2023/07/15 06:02:16;;;;;;;12.50;8.50;;;;;;;36.23;39.95;94867.03;4916432;29;20664;-75
2023/07/15 06:04:43;;;;;;;12.05;8.75;;;;;;;34.66;42.55;94868.13;4913447;29;20634;-75
2023/07/15 06:07:10;;;;;;;11.98;8.55;;;;;;;34.57;43.27;94854.88;4910809;29;20228;-77
2023/07/15 06:09:37;;;;;;;9.88;8.60;;;;;;;35.25;41.41;94857.06;4922056;29;20204;-77
2023/07/15 06:12:04;;;;;;;11.77;7.78;;;;;;;34.70;43.09;94862.31;4924636;29;20212;-76
2023/07/15 06:14:31;;;;;;;12.40;9.23;;;;;;;34.50;42.41;94865.72;4923936;29;20212;-75
2023/07/15 06:16:59;;;;;;;10.93;8.52;;;;;;;35.04;42.50;94867.41;4924518;29;20211;-77
2023/07/15 06:19:26;;;;;;;13.40;8.38;;;;;;;36.55;38.85;94848.25;4902711;29;20668;-76
2023/07/15 06:21:52;;;;;;;13.52;8.70;;;;;;;37.74;37.62;94860.50;4924445;29;20235;-76
2023/07/15 06:24:19;;;;;;;13.40;8.77;;;;;;;38.37;36.61;94849.22;4923043;29;20213;-72
2023/07/15 06:26:46;;;;;;;13.32;8.75;;;;;;;36.88;38.39;94852.84;4915896;29;20712;-73
2023/07/15 06:29:13;;;;;;;12.02;8.07;;;;;;;38.19;37.29;94850.38;4915230;29;20212;-74
2023/07/15 06:31:40;;;;;;;12.60;8.52;;;;;;;37.10;38.12;94844.63;4915338;29;20216;-75
2023/07/15 06:34:09;;;;;;;11.88;8.57;;;;;;;36.68;38.70;94845.09;4914804;29;20766;-74
2023/07/15 06:36:36;;;;;;;11.98;8.43;;;;;;;37.24;38.50;94840.97;4925989;29;20561;-76
2023/07/15 06:39:03;;;;;;;10.98;8.95;;;;;;;36.58;38.60;94841.63;4922074;29;20204;-74
2023/07/15 06:41:30;;;;;;;13.98;8.43;;;;;;;35.50;40.85;94844.47;4912055;29;20292;-74
2023/07/15 06:43:57;;;;;;;11.30;8.35;;;;;;;36.87;39.17;94845.63;4914830;29;20212;-73
2023/07/15 06:46:25;;;;;;;12.82;8.57;;;;;;;37.07;37.77;94842.78;4914857;29;20228;-74
2023/07/15 06:48:52;;;;;;;15.50;8.82;;;;;;;36.72;38.50;94847.75;4914915;29;20212;-77
2023/07/15 06:51:20;;;;;;;11.35;8.93;;;;;;;36.75;38.21;94846.78;4912769;29;20216;-74
2023/07/15 06:53:47;;;;;;;12.63;9.20;;;;;;;35.64;39.67;94838.06;4912257;29;20673;-74
2023/07/15 06:56:14;;;;;;;13.00;8.52;;;;;;;36.22;39.60;94842.13;4913489;29;20276;-76
2023/07/15 06:58:41;;;;;;;13.25;8.70;;;;;;;34.79;42.93;94842.56;4913719;29;20661;-74
2023/07/15 07:01:08;;;;;;;14.07;8.98;;;;;;;35.10;42.31;94840.13;4913307;29;20213;-75
2023/07/15 07:03:35;;;;;;;11.40;8.60;;;;;;;35.67;40.61;94847.59;4912712;29;20276;-73
2023/07/15 07:06:02;;;;;;;11.60;8.32;;;;;;;36.07;39.06;94847.00;4913290;29;20236;-74
2023/07/15 07:08:30;;;;;;;10.15;9.00;;;;;;;35.19;40.64;94842.84;4914835;29;20204;-74
2023/07/15 07:10:57;;;;;;;12.73;8.80;;;;;;;36.19;39.03;94843.09;4912740;29;20260;-74
2023/07/15 07:13:23;;;;;;;13.85;9.02;;;;;;;34.99;41.34;94847.59;4914113;29;20216;-75
2023/07/15 07:15:51;;;;;;;13.57;8.48;;;;;;;34.36;42.46;94853.13;4914926;29;20208;-75
2023/07/15 07:18:17;;;;;;;11.48;8.60;;;;;;;34.29;42.52;94861.94;4917367;29;20219;-75
2023/07/15 07:20:44;;;;;;;10.98;8.20;;;;;;;34.35;42.39;94853.59;4922593;29;20266;-73
2023/07/15 07:23:11;;;;;;;14.07;8.68;;;;;;;34.31;42.89;94859.38;4919190;29;20212;-73
2023/07/15 07:25:41;;;;;;;17.30;9.07;;;;;;;34.13;42.85;94853.84;4916181;29;20232;-73
2023/07/15 07:28:08;;;;;;;12.38;9.25;;;;;;;34.63;42.18;94845.78;4910894;29;20629;-78
2023/07/15 07:30:35;;;;;;;14.27;8.73;;;;;;;35.74;40.72;94836.69;4914887;29;20212;-78
2023/07/15 07:33:02;;;;;;;13.98;8.23;;;;;;;36.49;38.99;94838.94;4919005;29;20212;-80
2023/07/15 07:35:29;;;;;;;14.10;8.38;;;;;;;35.79;39.87;94838.88;4917780;29;20196;-76
2023/07/15 07:37:55;;;;;;;12.73;8.45;;;;;;;36.02;39.44;94842.81;4905340;29;20657;-77
2023/07/15 07:40:22;;;;;;;12.90;8.23;;;;;;;34.79;41.52;94848.19;4908644;29;20212;-80
2023/07/15 07:42:50;;;;;;;12.00;8.43;;;;;;;34.93;41.42;94836.19;4912822;29;20612;-80
2023/07/15 07:45:18;;;;;;;10.82;8.23;;;;;;;34.57;43.42;94840.81;4915969;29;20231;-81
2023/07/15 07:47:45;;;;;;;15.50;8.38;;;;;;;33.86;44.22;94835.84;4925832;29;20204;-74
2023/07/15 07:50:12;;;;;;;13.82;9.25;;;;;;;34.05;43.95;94846.97;4917425;29;20209;-73
2023/07/15 07:52:38;;;;;;;10.48;8.85;;;;;;;34.90;42.35;94834.34;4913924;29;20208;-75
2023/07/15 07:55:06;;;;;;;10.10;8.75;;;;;;;34.94;43.01;94832.13;4923880;29;20264;-75
2023/07/15 07:57:33;;;;;;;9.73;8.05;;;;;;;35.19;41.08;94831.59;4923024;29;20533;-75
2023/07/15 08:00:01;;;;;;;9.70;8.23;;;;;;;35.09;41.54;94827.31;4901421;29;20679;-73
2023/07/15 08:02:28;;;;;;;9.90;7.40;;;;;;;34.32;42.14;94832.81;4923753;29;20211;-74
2023/07/15 08:04:55;;;;;;;10.45;8.00;;;;;;;31.85;47.75;94839.69;4918010;29;20199;-75
2023/07/15 08:07:21;;;;;;;14.25;9.10;;;;;;;31.15;49.99;94849.56;4918185;29;20264;-74
2023/07/15 08:09:48;;;;;;;12.68;8.13;;;;;;;32.17;47.15;94839.19;4918554;29;20212;-73
2023/07/15 08:12:18;;;;;;;9.85;7.95;;;;;;;32.55;46.17;94838.06;4927542;29;20203;-74
2023/07/15 08:14:45;;;;;;;11.10;8.27;;;;;;;33.60;44.73;94834.63;4916583;29;20209;-74
2023/07/15 08:17:13;;;;;;;12.95;9.25;;;;;;;33.76;44.54;94842.72;4919489;29;20219;-75
2023/07/15 08:19:39;;;;;;;12.77;7.22;;;;;;;34.25;43.25;94838.78;4922842;29;20259;-74
2023/07/15 08:22:06;;;;;;;11.23;7.63;;;;;;;34.30;42.56;94840.97;4921758;29;20572;-75
2023/07/15 08:24:33;;;;;;;10.60;7.28;;;;;;;33.95;43.19;94843.44;4921151;29;20201;-74
2023/07/15 08:27:00;;;;;;;9.23;6.93;;;;;;;33.82;42.43;94835.22;4923849;29;20238;-75
2023/07/15 08:29:27;;;;;;;11.32;7.35;;;;;;;34.19;42.29;94840.66;4921337;29;20212;-75
2023/07/15 08:31:54;;;;;;;11.50;7.65;;;;;;;34.15;42.87;94842.91;4920619;29;20316;-73
2023/07/15 08:34:22;;;;;;;12.05;8.48;;;;;;;34.40;42.18;94836.84;4922705;29;20196;-74
2023/07/15 08:36:51;;;;;;;12.70;7.50;;;;;;;34.76;42.38;94835.84;4913511;29;20668;-75
2023/07/15 08:39:18;;;;;;;10.63;7.93;;;;;;;34.88;43.22;94839.66;4912706;29;20231;-75
2023/07/15 08:41:45;;;;;;;12.68;8.35;;;;;;;34.82;42.31;94835.97;4912338;29;20276;-76
2023/07/15 08:44:14;;;;;;;10.98;7.50;;;;;;;35.06;42.49;94833.91;4912537;29;20208;-75
2023/07/15 08:46:42;;;;;;;12.43;8.23;;;;;;;33.11;44.71;94837.66;4911752;29;20360;-75
2023/07/15 08:49:09;;;;;;;11.32;8.00;;;;;;;34.01;44.59;94840.78;4912596;29;20219;-75
2023/07/15 08:51:39;;;;;;;13.15;8.30;;;;;;;34.30;43.43;94832.53;4911982;29;20208;-75
2023/07/15 08:54:07;;;;;;;13.38;8.48;;;;;;;33.42;44.38;94834.66;4912177;29;20632;-75
2023/07/15 08:56:35;;;;;;;15.00;8.88;;;;;;;33.51;44.75;94831.84;4910590;29;20228;-74
2023/07/15 08:59:05;;;;;;;15.00;9.07;;;;;;;33.39;45.50;94832.81;4912504;29;20202;-75
2023/07/15 09:01:32;;;;;;;13.98;8.85;;;;;;;33.85;44.25;94834.28;4912011;29;20215;-75
2023/07/15 09:03:59;;;;;;;10.68;8.88;;;;;;;33.77;44.83;94824.59;4912442;29;20209;-75
2023/07/15 09:06:27;;;;;;;14.25;9.18;;;;;;;33.95;43.94;94825.78;4911918;29;20244;-75
2023/07/15 09:08:56;;;;;;;13.15;9.05;;;;;;;33.72;43.80;94828.03;4909861;29;20224;-74
2023/07/15 09:11:22;;;;;;;15.20;8.93;;;;;;;33.52;45.84;94833.41;4910555;29;20642;-74
2023/07/15 09:13:49;;;;;;;11.38;9.13;;;;;;;34.19;43.91;94827.38;4912340;29;20251;-74
2023/07/15 09:16:16;;;;;;;13.68;9.73;;;;;;;34.63;43.19;94828.88;4912008;29;20212;-74
2023/07/15 09:18:44;;;;;;;12.02;8.77;;;;;;;34.66;44.20;94827.94;4911914;29;20209;-75
2023/07/15 09:21:12;;;;;;;13.75;8.68;;;;;;;33.50;44.49;94831.06;4911716;29;20292;-74
2023/07/15 09:23:40;;;;;;;13.85;9.18;;;;;;;33.48;46.26;94827.19;4912004;29;20205;-75
2023/07/15 09:26:09;;;;;;;12.13;8.77;;;;;;;33.44;45.97;94826.56;4911569;29;20236;-75
2023/07/15 09:28:36;;;;;;;14.10;9.98;;;;;;;33.51;46.06;94831.84;4907220;29;20204;-75
2023/07/15 09:31:03;;;;;;;13.27;9.38;;;;;;;33.74;44.95;94817.09;4911612;29;20204;-75
2023/07/15 09:33:32;;;;;;;13.40;9.68;;;;;;;33.69;45.79;94814.94;4912170;29;20291;-74
2023/07/15 09:35:59;;;;;;;13.15;9.20;;;;;;;33.32;46.50;94816.28;4911306;29;20204;-75
2023/07/15 09:38:32;;;;;;;13.73;9.65;;;;;;;33.36;47.11;94814.06;4911160;29;20208;-75
2023/07/15 09:40:59;;;;;;;11.05;9.57;;;;;;;33.29;45.54;94814.41;4909765;29;20555;-75
2023/07/15 09:43:44;;;;;;;12.10;9.00;;;;;;;33.56;45.93;94805.91;4914448;29;20298;-75
2023/07/15 09:46:12;;;;;;;10.95;8.25;;;;;;;34.13;45.47;94803.22;4914573;29;20200;-75
2023/07/15 09:48:39;;;;;;;15.77;9.85;;;;;;;34.58;44.12;94794.50;4914923;29;20268;-76
2023/07/15 09:51:06;;;;;;;12.27;8.77;;;;;;;35.16;44.15;94787.47;4915426;29;20686;-75
2023/07/15 09:53:33;;;;;;;12.38;9.07;;;;;;;34.28;44.62;94792.84;4915727;29;20272;-76
2023/07/15 09:56:00;;;;;;;12.75;9.25;;;;;;;34.48;45.37;94784.56;4915987;29;20291;-75
2023/07/15 09:58:27;;;;;;;13.65;9.80;;;;;;;33.81;45.15;94799.91;4915696;29;20212;-75
2023/07/15 10:01:01;;;;;;;14.65;9.77;;;;;;;33.35;45.61;94796.44;4915798;29;20220;-76
2023/07/15 10:03:32;;;;;;;14.52;10.18;;;;;;;33.26;46.31;94795.69;4915684;29;20289;-77
2023/07/15 10:06:00;;;;;;;13.80;9.82;;;;;;;32.98;46.80;94789.31;4915537;29;20643;-76
2023/07/15 10:08:29;;;;;;;16.15;9.98;;;;;;;33.13;47.55;94779.78;4915374;29;20216;-74
2023/07/15 10:10:56;;;;;;;16.23;10.43;;;;;;;33.21;46.65;94797.09;4915245;29;20666;-75
2023/07/15 10:13:23;;;;;;;12.45;9.57;;;;;;;34.23;45.00;94779.41;4915446;29;20276;-75
2023/07/15 10:15:50;;;;;;;15.73;10.68;;;;;;;34.37;44.58;94784.34;4914268;29;20727;-75
2023/07/15 10:18:19;;;;;;;18.50;10.32;;;;;;;33.90;45.58;94790.66;4915519;29;20212;-75
2023/07/15 10:20:56;;;;;;;12.35;9.25;;;;;;;34.01;45.08;94796.56;4915106;29;20695;-75
2023/07/15 10:23:25;;;;;;;11.35;9.80;;;;;;;33.48;45.91;94794.25;4915446;29;20216;-74
2023/07/15 10:25:59;;;;;;;11.63;10.27;;;;;;;34.00;44.88;94774.53;4915590;29;20212;-74
2023/07/15 10:28:30;;;;;;;12.75;9.43;;;;;;;34.10;44.39;94792.91;4915031;29;20233;-74
2023/07/15 10:31:11;;;;;;;15.55;9.85;;;;;;;33.31;45.76;94783.81;4915608;29;20204;-74
2023/07/15 10:33:53;;;;;;;15.25;10.00;;;;;;;33.86;45.83;94784.44;4922076;29;20196;-76
2023/07/15 10:36:36;;;;;;;14.82;10.73;;;;;;;34.26;44.77;94770.00;4915051;29;20252;-76
2023/07/15 10:39:11;;;;;;;14.57;9.95;;;;;;;34.06;44.64;94787.47;4914990;29;20246;-76
2023/07/15 10:41:42;;;;;;;14.27;9.57;;;;;;;33.31;46.22;94783.81;4914772;29;20629;-75
2023/07/15 10:44:20;;;;;;;12.93;9.75;;;;;;;33.36;47.07;94783.16;4914909;29;20275;-75
2023/07/15 10:46:48;;;;;;;13.50;10.77;;;;;;;34.10;46.24;94776.81;4914930;29;20263;-75
2023/07/15 10:49:17;;;;;;;14.38;10.30;;;;;;;33.55;45.40;94787.50;4914711;29;20672;-76
2023/07/15 10:51:45;;;;;;;14.00;9.85;;;;;;;34.51;45.15;94766.72;4915149;29;20204;-74
2023/07/15 10:54:18;;;;;;;13.00;9.73;;;;;;;34.23;44.20;94762.53;4923914;29;20218;-74
2023/07/15 10:56:45;;;;;;;16.13;9.77;;;;;;;33.50;46.47;94777.66;4914977;29;20212;-74
2023/07/15 10:59:12;;;;;;;12.32;9.20;;;;;;;32.94;46.79;94772.59;4914832;29;20293;-74
2023/07/15 11:01:39;;;;;;;13.48;8.95;;;;;;;32.41;47.65;94775.69;4914649;29;20212;-73
2023/07/15 11:04:06;;;;;;;15.88;9.48;;;;;;;31.83;48.94;94786.94;4914874;29;20212;-71
2023/07/15 11:06:35;;;;;;;15.13;9.38;;;;;;;32.15;49.22;94763.16;4914055;29;20398;-75
2023/07/15 11:09:14;;;;;;;15.93;9.88;;;;;;;32.73;48.83;94762.34;4914381;29;20351;-74
2023/07/15 11:11:41;;;;;;;12.98;10.27;;;;;;;32.58;48.20;94767.00;4914757;29;20264;-75
2023/07/15 11:14:19;;;;;;;15.48;10.13;;;;;;;32.56;48.93;94770.25;4914282;29;20220;-75
2023/07/15 11:16:46;;;;;;;11.50;9.85;;;;;;;33.31;49.25;94761.34;4912968;29;20308;-73
2023/07/15 11:19:14;;;;;;;14.95;10.50;;;;;;;33.09;47.22;94767.91;4914609;29;20259;-74
2023/07/15 11:21:43;;;;;;;13.18;10.00;;;;;;;33.25;47.37;94757.63;4914025;29;20715;-75
2023/07/15 11:24:12;;;;;;;15.15;9.15;;;;;;;33.39;47.36;94756.94;4913670;29;20583;-72
2023/07/15 11:26:38;;;;;;;17.27;9.60;;;;;;;33.72;46.49;94746.53;4914319;29;20236;-73
2023/07/15 11:29:14;;;;;;;13.90;9.02;;;;;;;34.23;45.21;94746.41;4913087;29;20212;-74
2023/07/15 11:31:41;;;;;;;14.45;9.27;;;;;;;33.85;44.65;94737.91;4914209;29;20260;-74